Houston, Texas
Traffic Map
Current Weather Conditions
Houston, Texas
Scattered Clouds
Scattered Clouds
34°
Feels Like: 38°
Wind Chill: 34° Ceiling: Unl
Heat Index: 38° Visibility: 10mi
Dew Point: 22° Wind: 13mph
Humidity: 49% Direction: 140° (SE)
Pressure: 29.95in Gusts: 18mph
Raw Report DataKMCJ 201815Z AUTO 14011G16KT 010V030 10SM FEW031 SCT042 34/22 A2995 RMK AO1
Traffic Incident Summary
Active as of:
Severity:
Category:
InformationThere was an issue retrieving the traffic information for this location. Please try a different location or try again shortly.
Advertisements
Track Severe Weather on mobile